Time;durP1;ratioP1;P1;durP2;ratioP2;P2;SDS_P1;SDS_P2;PMS_P1;PMS_P2;Temp;Humidity;BMP_temperature;BMP_pressure;BME280_temperature;BME280_humidity;BME280_pressure;Samples;Min_cycle;Max_cycle;Signal;HPM_P1;HPM_P2
2022/09/14 00:00:21;;;;;;;;;;;12.70;99.90;;;;;;4898923;29;19919;-60
2022/09/14 00:02:47;;;;;;;;;;;12.70;99.90;;;;;;4898578;29;19919;-60
2022/09/14 00:05:13;;;;;;;;;;;13.00;99.90;;;;;;4898789;29;19975;-60
2022/09/14 00:07:38;;;;;;;;;;;12.80;99.90;;;;;;4898673;29;19923;-60
2022/09/14 00:10:04;;;;;;;;;;;;;;;;;;4898702;29;19929;-60
2022/09/14 00:12:30;;;;;;;;;;;12.60;99.90;;;;;;4898945;29;19930;-60
2022/09/14 00:14:55;;;;;;;;;;;12.30;99.90;;;;;;4897370;29;19923;-60
2022/09/14 00:17:21;;;;;;;;;;;12.80;99.90;;;;;;4898264;29;20038;-60
2022/09/14 00:19:46;;;;;;;;;;;12.70;99.90;;;;;;4898448;29;19926;-60
2022/09/14 00:22:12;;;;;;;;;;;12.60;99.90;;;;;;4882049;29;19969;-60
2022/09/14 00:24:38;;;;;;;;;;;;;;;;;;4898388;29;19923;-60
2022/09/14 00:27:04;;;;;;;;;;;12.50;99.90;;;;;;4897225;29;19919;-60
2022/09/14 00:29:29;;;;;;;;;;;12.70;99.90;;;;;;4898547;29;19952;-61
2022/09/14 00:31:55;;;;;;;;;;;12.40;99.90;;;;;;4898051;29;19935;-61
2022/09/14 00:34:21;;;;;;;;;;;;;;;;;;4898403;29;19924;-60
2022/09/14 00:36:48;;;;;;;;;;;12.60;99.90;;;;;;4898211;29;20276;-60
2022/09/14 00:39:14;;;;;;;;;;;12.50;99.90;;;;;;4898165;29;20383;-60
2022/09/14 00:41:43;;;;;;;;;;;12.50;99.90;;;;;;4898454;29;19919;-60
2022/09/14 00:44:08;;;;;;;;;;;12.80;99.90;;;;;;4897681;29;19927;-60
2022/09/14 00:46:36;;;;;;;;;;;12.80;99.90;;;;;;4897845;29;19919;-61
2022/09/14 00:49:02;;;;;;;;;;;;;;;;;;4898082;29;19923;-61
2022/09/14 00:51:29;;;;;;;;;;;12.90;99.90;;;;;;4898144;29;19926;-61
2022/09/14 00:53:54;;;;;;;;;;;12.70;99.90;;;;;;4896768;29;20046;-61
2022/09/14 00:56:20;;;;;;;;;;;;;;;;;;4898242;29;19974;-61
2022/09/14 00:58:48;;;;;;;;;;;12.60;99.90;;;;;;4898121;29;19929;-61
2022/09/14 01:01:14;;;;;;;;;;;12.90;99.90;;;;;;4897413;29;20053;-61
2022/09/14 01:03:39;;;;;;;;;;;13.00;99.90;;;;;;4892464;23;19943;-61
2022/09/14 01:06:08;;;;;;;;;;;12.80;99.90;;;;;;4913871;23;20341;-60
2022/09/14 01:08:42;;;;;;;;;;;13.10;99.90;;;;;;4897846;29;19978;-60
2022/09/14 01:11:08;;;;;;;;;;;;;;;;;;4898214;29;19967;-60
2022/09/14 01:13:45;;;;;;;;;;;12.80;99.90;;;;;;4881154;29;19923;-61
2022/09/14 01:16:19;;;;;;;;;;;13.00;99.90;;;;;;4897090;29;19962;-60
2022/09/14 01:18:45;;;;;;;;;;;;;;;;;;4896812;29;20383;-60
2022/09/14 01:21:14;;;;;;;;;;;12.60;99.90;;;;;;4897789;29;19919;-60
2022/09/14 01:23:52;;;;;;;;;;;13.10;99.90;;;;;;4897755;29;20424;-60
2022/09/14 01:29:01;;;;;;;;;;;12.90;99.90;;;;;;4888195;23;19926;-60
2022/09/14 01:31:29;;;;;;;;;;;13.20;99.90;;;;;;4879070;29;20288;-60
2022/09/14 01:34:02;;;;;;;;;;;13.40;99.90;;;;;;4879295;29;20344;-60
2022/09/14 01:36:29;;;;;;;;;;;13.60;99.90;;;;;;4879146;29;19920;-60
2022/09/14 01:38:55;;;;;;;;;;;;;;;;;;4879059;29;19983;-60
2022/09/14 01:41:22;;;;;;;;;;;13.30;99.90;;;;;;4879005;29;19923;-60
2022/09/14 01:43:56;;;;;;;;;;;13.10;99.90;;;;;;4878625;29;20345;-60
2022/09/14 01:46:48;;;;;;;;;;;13.30;99.90;;;;;;4878963;29;20014;-60
2022/09/14 01:49:17;;;;;;;;;;;13.40;99.90;;;;;;4876912;29;19924;-60
2022/09/14 01:51:47;;;;;;;;;;;13.60;99.90;;;;;;4897689;29;19926;-60
2022/09/14 01:54:19;;;;;;;;;;;13.40;99.90;;;;;;4897461;29;20013;-60
2022/09/14 01:56:50;;;;;;;;;;;13.30;99.90;;;;;;4883466;29;19919;-60
2022/09/14 01:59:17;;;;;;;;;;;;;;;;;;4900908;29;20018;-60
2022/09/14 02:01:48;;;;;;;;;;;13.20;99.90;;;;;;4884497;29;19939;-60
2022/09/14 02:04:16;;;;;;;;;;;13.00;99.90;;;;;;4900972;29;19920;-60
2022/09/14 02:06:42;;;;;;;;;;;;;;;;;;4884172;29;19923;-60
2022/09/14 02:09:10;;;;;;;;;;;13.30;99.90;;;;;;4884282;29;19923;-60
2022/09/14 02:11:36;;;;;;;;;;;13.60;99.90;;;;;;4900543;29;19980;-60
2022/09/14 02:14:02;;;;;;;;;;;;;;;;;;4900886;29;20062;-60
2022/09/14 02:16:28;;;;;;;;;;;13.50;99.90;;;;;;4900769;29;19966;-60
2022/09/14 02:18:54;;;;;;;;;;;13.60;99.90;;;;;;4900781;29;20316;-60
2022/09/14 02:21:21;;;;;;;;;;;13.60;99.90;;;;;;4884183;29;19923;-60
2022/09/14 02:23:50;;;;;;;;;;;;;;;;;;4900892;29;19919;-60
2022/09/14 02:26:17;;;;;;;;;;;13.60;99.90;;;;;;4900300;29;19923;-61
2022/09/14 02:28:43;;;;;;;;;;;;;;;;;;4900412;29;19930;-60
2022/09/14 02:31:25;;;;;;;;;;;13.40;99.90;;;;;;4884075;29;19919;-61
2022/09/14 02:33:57;;;;;;;;;;;13.70;99.90;;;;;;4900401;29;19919;-60
2022/09/14 02:36:27;;;;;;;;;;;13.50;99.90;;;;;;4900537;29;19925;-60
2022/09/14 02:39:01;;;;;;;;;;;13.50;99.90;;;;;;4900500;29;19919;-61
2022/09/14 02:41:30;;;;;;;;;;;13.60;99.90;;;;;;4900004;29;19926;-61
2022/09/14 02:44:07;;;;;;;;;;;14.00;99.90;;;;;;4900244;29;19923;-61
2022/09/14 02:46:37;;;;;;;;;;;13.50;99.90;;;;;;4900150;29;20015;-60
2022/09/14 02:49:03;;;;;;;;;;;;;;;;;;4900205;29;20320;-61
2022/09/14 02:51:51;;;;;;;;;;;13.50;99.90;;;;;;4900163;29;19920;-62
2022/09/14 02:54:17;;;;;;;;;;;;;;;;;;4900141;29;19967;-63
2022/09/14 02:56:43;;;;;;;;;;;;;;;;;;4899698;29;19923;-61
2022/09/14 02:59:09;;;;;;;;;;;13.60;99.90;;;;;;4900163;29;19919;-61
2022/09/14 03:01:36;;;;;;;;;;;13.50;99.90;;;;;;4900135;29;20287;-61
2022/09/14 03:04:01;;;;;;;;;;;;;;;;;;4900029;29;20014;-61
2022/09/14 03:06:27;;;;;;;;;;;13.50;99.90;;;;;;4883331;29;19919;-61
2022/09/14 03:08:53;;;;;;;;;;;13.30;99.90;;;;;;4899046;29;19943;-61
2022/09/14 03:11:18;;;;;;;;;;;13.60;99.90;;;;;;4899232;29;19967;-61
2022/09/14 03:13:44;;;;;;;;;;;13.70;99.90;;;;;;4899917;29;19919;-61
2022/09/14 03:16:10;;;;;;;;;;;13.50;99.90;;;;;;4883095;29;19920;-61
2022/09/14 03:18:36;;;;;;;;;;;;;;;;;;4883175;29;20388;-61
2022/09/14 03:21:10;;;;;;;;;;;13.60;99.90;;;;;;4899776;29;19920;-61
2022/09/14 03:23:36;;;;;;;;;;;;;;;;;;4899570;29;20378;-61
2022/09/14 03:26:05;;;;;;;;;;;13.60;99.90;;;;;;4899030;29;19923;-61
2022/09/14 03:28:31;;;;;;;;;;;13.50;99.90;;;;;;4899421;29;19993;-61
2022/09/14 03:30:59;;;;;;;;;;;13.50;99.90;;;;;;4899505;29;20388;-61
2022/09/14 03:33:24;;;;;;;;;;;13.10;99.90;;;;;;4899457;29;20464;-61
2022/09/14 03:35:50;;;;;;;;;;;13.50;99.90;;;;;;4882813;29;20034;-61
2022/09/14 03:38:15;;;;;;;;;;;12.80;99.90;;;;;;4899256;29;19926;-61
2022/09/14 03:40:41;;;;;;;;;;;13.20;99.90;;;;;;4898836;29;19919;-61
2022/09/14 03:43:07;;;;;;;;;;;13.50;99.90;;;;;;4882945;29;19919;-61
2022/09/14 03:45:33;;;;;;;;;;;;;;;;;;4899334;29;19988;-61
2022/09/14 03:47:59;;;;;;;;;;;13.10;99.90;;;;;;4898953;29;20317;-61
2022/09/14 03:50:24;;;;;;;;;;;13.10;99.90;;;;;;4899116;29;20022;-61
2022/09/14 03:52:50;;;;;;;;;;;;;;;;;;4899051;29;19925;-61
2022/09/14 03:55:18;;;;;;;;;;;13.40;99.90;;;;;;4898516;29;20390;-61
2022/09/14 03:57:43;;;;;;;;;;;;;;;;;;4899149;29;19924;-61
2022/09/14 04:00:09;;;;;;;;;;;13.40;99.90;;;;;;4882455;29;19923;-61
2022/09/14 04:02:35;;;;;;;;;;;13.50;99.90;;;;;;4898946;29;20013;-61
2022/09/14 04:05:00;;;;;;;;;;;13.30;99.90;;;;;;4898803;29;20428;-61
2022/09/14 04:07:26;;;;;;;;;;;13.10;99.90;;;;;;4898646;29;19983;-61
2022/09/14 04:09:51;;;;;;;;;;;13.50;99.90;;;;;;4898263;29;19967;-61
2022/09/14 04:12:17;;;;;;;;;;;13.40;99.90;;;;;;4882414;29;20434;-61
2022/09/14 04:14:43;;;;;;;;;;;;;;;;;;4898725;29;19919;-61
2022/09/14 04:17:08;;;;;;;;;;;13.90;99.90;;;;;;4898709;29;19919;-61
2022/09/14 04:19:36;;;;;;;;;;;13.90;99.90;;;;;;4881910;29;20487;-61
2022/09/14 04:22:02;;;;;;;;;;;13.70;99.90;;;;;;4898062;29;19991;-62
2022/09/14 04:24:27;;;;;;;;;;;13.20;99.90;;;;;;4898431;29;20357;-61
2022/09/14 04:26:53;;;;;;;;;;;13.60;99.90;;;;;;4898670;29;19975;-61
2022/09/14 04:29:19;;;;;;;;;;;13.50;99.90;;;;;;4887539;29;19920;-61
2022/09/14 04:31:44;;;;;;;;;;;13.80;99.90;;;;;;4917368;29;20294;-62
2022/09/14 04:34:11;;;;;;;;;;;13.80;99.90;;;;;;4917261;29;20356;-61
2022/09/14 04:36:37;;;;;;;;;;;;;;;;;;4916743;29;19926;-61
2022/09/14 04:39:02;;;;;;;;;;;13.60;99.90;;;;;;4916977;29;19919;-61
2022/09/14 04:41:29;;;;;;;;;;;13.60;99.90;;;;;;4917258;29;19919;-62
2022/09/14 04:43:55;;;;;;;;;;;14.00;99.90;;;;;;4917207;29;19923;-61
2022/09/14 04:46:21;;;;;;;;;;;14.10;99.90;;;;;;4917151;29;19929;-61
2022/09/14 04:48:47;;;;;;;;;;;13.90;99.90;;;;;;4916903;29;20291;-61
2022/09/14 04:51:17;;;;;;;;;;;13.70;99.90;;;;;;4899912;29;19919;-61
2022/09/14 04:53:43;;;;;;;;;;;14.00;99.90;;;;;;4916813;29;20025;-61
2022/09/14 04:56:09;;;;;;;;;;;13.60;99.90;;;;;;4916949;29;20427;-61
2022/09/14 04:58:38;;;;;;;;;;;14.10;99.90;;;;;;4916811;29;20443;-61
2022/09/14 05:01:11;;;;;;;;;;;13.90;99.90;;;;;;4916895;29;20363;-61
2022/09/14 05:03:40;;;;;;;;;;;13.60;99.90;;;;;;4916948;29;19919;-61
2022/09/14 05:06:06;;;;;;;;;;;;;;;;;;4916382;29;19919;-61
2022/09/14 05:08:32;;;;;;;;;;;13.90;99.90;;;;;;4917022;29;20321;-61
2022/09/14 05:10:58;;;;;;;;;;;14.20;99.90;;;;;;4900062;29;19923;-61
2022/09/14 05:13:24;;;;;;;;;;;13.40;99.90;;;;;;4917110;29;19918;-61
2022/09/14 05:15:50;;;;;;;;;;;13.70;99.90;;;;;;4923208;23;20010;-61
2022/09/14 05:18:16;;;;;;;;;;;14.30;99.90;;;;;;4907316;23;19931;-61
2022/09/14 05:20:41;;;;;;;;;;;;;;;;;;4911141;23;19926;-61
2022/09/14 05:23:07;;;;;;;;;;;13.80;99.90;;;;;;4897139;29;20393;-61
2022/09/14 05:25:32;;;;;;;;;;;14.00;99.90;;;;;;4897224;29;20391;-60
2022/09/14 05:27:58;;;;;;;;;;;13.80;99.90;;;;;;4896710;29;19974;-61
2022/09/14 05:30:24;;;;;;;;;;;;;;;;;;4881978;29;20253;-61
2022/09/14 05:32:49;;;;;;;;;;;14.00;99.90;;;;;;4901555;29;19942;-61
2022/09/14 05:35:15;;;;;;;;;;;13.80;99.90;;;;;;4901067;29;20368;-61
2022/09/14 05:37:41;;;;;;;;;;;13.80;99.90;;;;;;4942199;23;19924;-61
2022/09/14 05:43:28;;;;;;;;;;;14.20;99.90;;;;;;4512434;23;19975;-61
2022/09/14 05:45:53;;;;;;;;;;;;;;;;;;4901635;29;19927;-61
2022/09/14 05:48:19;;;;;;;;;;;;;;;;;;4901284;29;20399;-61
2022/09/14 05:50:45;;;;;;;;;;;14.10;99.90;;;;;;4901007;29;19967;-61
2022/09/14 05:53:11;;;;;;;;;;;;;;;;;;4884533;29;20013;-61
2022/09/14 05:55:36;;;;;;;;;;;14.40;99.90;;;;;;4901077;29;19919;-61
2022/09/14 05:58:03;;;;;;;;;;;14.20;99.90;;;;;;4901041;29;19919;-61
2022/09/14 06:00:30;;;;;;;;;;;;;;;;;;4901075;29;19919;-61
2022/09/14 06:02:55;;;;;;;;;;;14.10;99.90;;;;;;4901229;29;19927;-61
2022/09/14 06:05:21;;;;;;;;;;;14.50;99.90;;;;;;4900806;29;19942;-61
2022/09/14 06:07:46;;;;;;;;;;;;;;;;;;4900892;29;19919;-62
2022/09/14 06:10:12;;;;;;;;;;;14.40;99.90;;;;;;4900942;29;20013;-61
2022/09/14 06:12:37;;;;;;;;;;;14.50;99.90;;;;;;4900760;29;19919;-61
2022/09/14 06:15:03;;;;;;;;;;;;;;;;;;4900991;29;19926;-61
2022/09/14 06:17:30;;;;;;;;;;;14.50;99.90;;;;;;4884352;29;19983;-61
2022/09/14 06:19:55;;;;;;;;;;;14.80;99.90;;;;;;4900447;29;19962;-61
2022/09/14 06:22:21;;;;;;;;;;;;;;;;;;4900769;29;20026;-61
2022/09/14 06:24:46;;;;;;;;;;;14.70;99.90;;;;;;4883732;29;20280;-61
2022/09/14 06:27:12;;;;;;;;;;;14.90;99.90;;;;;;4883968;29;19919;-61
2022/09/14 06:29:38;;;;;;;;;;;15.10;99.90;;;;;;4883911;29;19927;-61
2022/09/14 06:32:03;;;;;;;;;;;15.00;99.90;;;;;;4883930;29;19926;-61
2022/09/14 06:34:29;;;;;;;;;;;14.70;99.90;;;;;;4900129;29;19919;-61
2022/09/14 06:36:55;;;;;;;;;;;15.30;99.90;;;;;;4900538;29;20018;-61
2022/09/14 06:39:20;;;;;;;;;;;15.30;99.90;;;;;;4900455;29;20017;-61
2022/09/14 06:41:46;;;;;;;;;;;15.40;99.90;;;;;;4882638;29;19919;-61
2022/09/14 06:44:11;;;;;;;;;;;15.60;99.90;;;;;;4900206;29;19979;-61
2022/09/14 06:46:37;;;;;;;;;;;;;;;;;;4883862;29;20018;-61
2022/09/14 06:49:07;;;;;;;;;;;15.50;99.90;;;;;;4899788;29;20324;-61
2022/09/14 06:51:33;;;;;;;;;;;;;;;;;;4900191;29;20019;-61
2022/09/14 06:53:59;;;;;;;;;;;15.80;99.90;;;;;;4883289;29;20014;-61
2022/09/14 06:56:25;;;;;;;;;;;15.50;99.90;;;;;;4900005;29;19942;-60
2022/09/14 06:58:52;;;;;;;;;;;15.60;99.90;;;;;;4883687;29;19920;-61
2022/09/14 07:01:18;;;;;;;;;;;15.80;99.90;;;;;;4900135;29;19919;-61
2022/09/14 07:03:45;;;;;;;;;;;16.20;99.90;;;;;;4883144;29;19920;-61
2022/09/14 07:06:12;;;;;;;;;;;16.00;99.90;;;;;;4899970;29;19920;-61
2022/09/14 07:08:38;;;;;;;;;;;;;;;;;;4900258;29;19930;-61
2022/09/14 07:11:05;;;;;;;;;;;16.20;99.90;;;;;;4882907;29;20233;-61
2022/09/14 07:13:31;;;;;;;;;;;16.10;99.90;;;;;;4899968;29;20010;-61
2022/09/14 07:15:56;;;;;;;;;;;16.50;99.90;;;;;;4900094;29;19993;-61
2022/09/14 07:18:27;;;;;;;;;;;16.10;99.90;;;;;;4882903;29;20264;-61
2022/09/14 07:20:53;;;;;;;;;;;16.40;99.90;;;;;;4899696;29;20273;-61
2022/09/14 07:23:19;;;;;;;;;;;;;;;;;;4899670;29;20022;-61
2022/09/14 07:25:44;;;;;;;;;;;16.50;99.90;;;;;;4867624;29;19995;-61
2022/09/14 07:28:10;;;;;;;;;;;16.80;99.90;;;;;;4882949;29;20384;-62
2022/09/14 07:30:37;;;;;;;;;;;16.60;99.90;;;;;;4899283;29;20018;-61
2022/09/14 07:33:03;;;;;;;;;;;16.90;99.90;;;;;;4899292;29;19920;-61
2022/09/14 07:35:29;;;;;;;;;;;16.60;99.90;;;;;;4882541;29;19919;-61
2022/09/14 07:37:55;;;;;;;;;;;17.00;99.90;;;;;;4899189;29;19923;-62
2022/09/14 07:40:22;;;;;;;;;;;17.10;99.90;;;;;;4899056;29;20261;-62
2022/09/14 07:42:51;;;;;;;;;;;17.40;99.90;;;;;;4898910;29;19966;-61
2022/09/14 07:45:17;;;;;;;;;;;;;;;;;;4898942;29;19924;-61
2022/09/14 07:47:43;;;;;;;;;;;;;;;;;;4899053;29;19919;-61
2022/09/14 07:50:09;;;;;;;;;;;17.10;99.90;;;;;;4882299;29;20321;-61
2022/09/14 07:52:34;;;;;;;;;;;17.20;99.90;;;;;;4899010;29;19941;-61
2022/09/14 07:55:00;;;;;;;;;;;17.00;99.90;;;;;;4898822;29;20272;-61
2022/09/14 07:57:26;;;;;;;;;;;;;;;;;;4899023;29;19927;-61
2022/09/14 07:59:52;;;;;;;;;;;17.30;99.90;;;;;;4898700;29;19926;-61
2022/09/14 08:02:17;;;;;;;;;;;17.10;99.90;;;;;;4898902;29;19923;-61
2022/09/14 08:04:43;;;;;;;;;;;;;;;;;;4882114;29;19919;-61
2022/09/14 08:07:09;;;;;;;;;;;17.30;99.90;;;;;;4898726;29;20357;-61
2022/09/14 08:09:34;;;;;;;;;;;17.40;99.90;;;;;;4882168;29;19923;-61
2022/09/14 08:12:00;;;;;;;;;;;17.20;99.90;;;;;;4898667;29;20269;-61
2022/09/14 08:14:25;;;;;;;;;;;17.40;99.90;;;;;;4881915;29;19923;-61
2022/09/14 08:16:51;;;;;;;;;;;;;;;;;;4866684;29;19986;-61
2022/09/14 08:19:19;;;;;;;;;;;17.50;99.90;;;;;;4898564;29;20384;-61
2022/09/14 08:21:46;;;;;;;;;;;17.40;99.90;;;;;;4881726;29;19919;-61
2022/09/14 08:24:12;;;;;;;;;;;;;;;;;;4898705;29;19925;-61
2022/09/14 08:26:39;;;;;;;;;;;17.60;99.90;;;;;;4898611;29;20009;-61
2022/09/14 08:29:06;;;;;;;;;;;17.50;99.90;;;;;;4881490;29;19927;-61
2022/09/14 08:31:34;;;;;;;;;;;17.20;99.90;;;;;;4898456;29;19970;-61
2022/09/14 08:34:01;;;;;;;;;;;17.40;99.90;;;;;;4898399;29;19926;-61
2022/09/14 08:36:28;;;;;;;;;;;17.30;99.90;;;;;;4898231;29;19965;-61
2022/09/14 08:38:53;;;;;;;;;;;17.20;99.90;;;;;;4881723;29;20428;-61
2022/09/14 08:41:25;;;;;;;;;;;17.40;99.90;;;;;;4898438;29;19970;-61
2022/09/14 08:43:52;;;;;;;;;;;17.60;99.90;;;;;;4897925;29;20002;-61
2022/09/14 08:46:24;;;;;;;;;;;17.70;99.90;;;;;;4881785;29;19919;-61
2022/09/14 08:48:50;;;;;;;;;;;17.50;99.90;;;;;;4898102;29;19919;-61
2022/09/14 08:51:17;;;;;;;;;;;;;;;;;;4881926;29;19926;-62
2022/09/14 08:53:42;;;;;;;;;;;18.10;99.90;;;;;;4866268;29;19919;-61
2022/09/14 08:56:11;;;;;;;;;;;17.80;99.90;;;;;;4898232;29;20419;-61
2022/09/14 08:58:46;;;;;;;;;;;18.10;99.90;;;;;;4897765;29;19927;-62
2022/09/14 09:01:11;;;;;;;;;;;;;;;;;;4898081;29;20046;-61
2022/09/14 09:03:37;;;;;;;;;;;19.00;99.90;;;;;;4897964;29;19948;-61
2022/09/14 09:06:16;;;;;;;;;;;18.90;99.90;;;;;;4897504;29;19920;-61
2022/09/14 09:08:51;;;;;;;;;;;18.70;99.90;;;;;;4898010;29;19930;-61
2022/09/14 09:11:17;;;;;;;;;;;18.80;99.90;;;;;;4898110;29;19923;-61
2022/09/14 09:13:44;;;;;;;;;;;19.00;99.90;;;;;;4897588;29;20006;-61
2022/09/14 09:16:11;;;;;;;;;;;18.60;99.90;;;;;;4897861;29;20014;-61
2022/09/14 09:18:40;;;;;;;;;;;19.10;99.90;;;;;;4898064;29;20264;-61
2022/09/14 09:21:12;;;;;;;;;;;18.80;99.90;;;;;;4897769;29;20384;-61
2022/09/14 09:23:38;;;;;;;;;;;18.80;99.90;;;;;;4880950;29;20415;-61
2022/09/14 09:28:48;;;;;;;;;;;19.30;99.90;;;;;;4911252;23;20021;-61
2022/09/14 09:31:15;;;;;;;;;;;19.30;99.90;;;;;;4910636;23;19920;-61
2022/09/14 09:33:41;;;;;;;;;;;;;;;;;;4798293;23;19923;-61
2022/09/14 09:36:08;;;;;;;;;;;18.90;99.90;;;;;;4881344;29;20042;-61
2022/09/14 09:38:33;;;;;;;;;;;19.00;99.90;;;;;;4896575;29;19920;-61
2022/09/14 09:40:59;;;;;;;;;;;;;;;;;;4897248;29;19919;-61
2022/09/14 09:43:25;;;;;;;;;;;;;;;;;;4897606;29;19919;-61
2022/09/14 09:48:42;;;;;;;;;;;18.70;99.90;;;;;;4743559;23;19924;-61
2022/09/14 09:51:15;;;;;;;;;;;18.50;99.90;;;;;;4841898;29;20368;-61
2022/09/14 09:53:47;;;;;;;;;;;18.80;99.90;;;;;;4897018;23;20003;-61
2022/09/14 09:56:16;;;;;;;;;;;18.90;99.90;;;;;;4862352;29;19919;-62
2022/09/14 09:58:42;;;;;;;;;;;19.30;99.90;;;;;;4879021;29;19926;-61
2022/09/14 10:01:25;;;;;;;;;;;19.10;99.90;;;;;;4862520;29;20277;-62
2022/09/14 10:04:15;;;;;;;;;;;18.80;99.90;;;;;;4862157;29;20407;-62
2022/09/14 10:06:42;;;;;;;;;;;19.50;99.90;;;;;;4879008;29;20022;-62
2022/09/14 10:09:18;;;;;;;;;;;19.90;99.90;;;;;;4878693;29;20377;-62
2022/09/14 10:11:44;;;;;;;;;;;20.10;99.90;;;;;;4878533;29;19975;-62
2022/09/14 10:14:10;;;;;;;;;;;;;;;;;;4877832;29;20380;-62
2022/09/14 10:16:37;;;;;;;;;;;20.20;99.90;;;;;;4879511;29;20357;-62
2022/09/14 10:19:11;;;;;;;;;;;20.20;99.90;;;;;;4882016;29;20392;-61
2022/09/14 10:21:56;;;;;;;;;;;20.10;99.90;;;;;;4882001;29;19919;-62
2022/09/14 10:24:22;;;;;;;;;;;20.50;99.90;;;;;;4881878;29;20272;-62
2022/09/14 10:26:47;;;;;;;;;;;20.20;99.90;;;;;;4881745;29;20048;-62
2022/09/14 10:29:29;;;;;;;;;;;20.40;99.90;;;;;;4882005;29;19920;-62
2022/09/14 10:32:01;;;;;;;;;;;20.60;99.90;;;;;;4865617;29;20364;-62
2022/09/14 10:34:26;;;;;;;;;;;20.60;99.90;;;;;;4881913;29;19919;-62
2022/09/14 10:36:58;;;;;;;;;;;20.60;99.90;;;;;;4865404;29;20250;-62
2022/09/14 10:39:34;;;;;;;;;;;20.20;99.90;;;;;;4880191;29;20384;-62
2022/09/14 10:42:03;;;;;;;;;;;20.60;99.90;;;;;;4881839;29;19920;-62
2022/09/14 10:44:37;;;;;;;;;;;20.20;99.90;;;;;;4881576;29;20428;-62
2022/09/14 10:47:09;;;;;;;;;;;21.00;99.90;;;;;;4881642;29;19919;-62
2022/09/14 10:49:41;;;;;;;;;;;21.10;99.90;;;;;;4881452;29;20018;-62
2022/09/14 10:52:33;;;;;;;;;;;21.30;99.90;;;;;;4881717;29;19924;-62
2022/09/14 10:55:41;;;;;;;;;;;21.20;99.90;;;;;;4896093;29;19919;-62
2022/09/14 10:58:06;;;;;;;;;;;;;;;;;;4809018;29;20377;-62
2022/09/14 11:00:37;;;;;;;;;;;20.60;99.90;;;;;;4823872;29;19924;-62
2022/09/14 11:03:18;;;;;;;;;;;20.90;99.90;;;;;;4808709;29;19927;-62
2022/09/14 11:05:50;;;;;;;;;;;20.90;99.90;;;;;;4823870;29;20365;-62
2022/09/14 11:08:16;;;;;;;;;;;20.60;99.90;;;;;;4823325;29;20337;-62
2022/09/14 11:10:44;;;;;;;;;;;20.10;99.90;;;;;;4823686;29;19920;-62
2022/09/14 11:13:22;;;;;;;;;;;20.50;99.90;;;;;;4823749;29;20281;-62
2022/09/14 11:15:53;;;;;;;;;;;20.10;99.90;;;;;;4823721;29;20024;-62
2022/09/14 11:18:24;;;;;;;;;;;20.00;99.90;;;;;;4823593;29;20255;-62
2022/09/14 11:21:09;;;;;;;;;;;20.30;99.90;;;;;;4823645;29;19921;-62
2022/09/14 11:23:46;;;;;;;;;;;20.60;99.90;;;;;;4823157;29;20007;-62
2022/09/14 11:26:30;;;;;;;;;;;20.30;99.90;;;;;;4808581;29;19920;-62
2022/09/14 11:28:59;;;;;;;;;;;20.60;99.90;;;;;;4864926;29;19919;-62
2022/09/14 11:31:27;;;;;;;;;;;20.80;99.90;;;;;;4898309;29;19923;-62
2022/09/14 11:34:02;;;;;;;;;;;21.00;99.90;;;;;;4899687;29;19920;-62
2022/09/14 11:36:43;;;;;;;;;;;21.20;99.90;;;;;;4898523;29;20018;-62
2022/09/14 11:39:16;;;;;;;;;;;21.60;99.90;;;;;;4882292;29;20026;-63
2022/09/14 11:41:46;;;;;;;;;;;21.30;99.90;;;;;;4882669;29;20055;-62
2022/09/14 11:44:22;;;;;;;;;;;21.40;99.90;;;;;;4899265;29;19919;-62
2022/09/14 11:46:56;;;;;;;;;;;21.60;99.90;;;;;;4898070;29;19924;-62
2022/09/14 11:49:29;;;;;;;;;;;21.20;99.90;;;;;;4899148;29;19920;-62
2022/09/14 11:51:55;;;;;;;;;;;;;;;;;;4897634;29;19923;-62
2022/09/14 11:54:21;;;;;;;;;;;21.10;99.90;;;;;;4898795;29;19923;-62
2022/09/14 11:56:48;;;;;;;;;;;20.80;99.90;;;;;;4899101;29;19975;-62
2022/09/14 11:59:32;;;;;;;;;;;21.30;99.90;;;;;;4899110;29;19920;-63
2022/09/14 12:02:17;;;;;;;;;;;20.90;99.90;;;;;;4898915;29;19975;-62
2022/09/14 12:05:02;;;;;;;;;;;20.60;99.90;;;;;;4898958;29;19926;-62
2022/09/14 12:07:45;;;;;;;;;;;20.80;99.90;;;;;;4898546;29;19923;-62
2022/09/14 12:10:14;;;;;;;;;;;20.90;99.90;;;;;;4898785;29;20287;-62
2022/09/14 12:12:39;;;;;;;;;;;21.10;99.90;;;;;;4897811;29;20066;-63
2022/09/14 12:15:12;;;;;;;;;;;21.20;99.90;;;;;;4898650;29;20407;-62
2022/09/14 12:17:39;;;;;;;;;;;21.20;99.90;;;;;;4898893;29;19920;-63
2022/09/14 12:20:34;;;;;;;;;;;20.70;99.90;;;;;;4881970;29;19919;-63
2022/09/14 12:23:04;;;;;;;;;;;20.90;99.90;;;;;;4881986;29;19919;-62
2022/09/14 12:25:30;;;;;;;;;;;20.90;99.90;;;;;;4881595;29;19919;-62
2022/09/14 12:27:55;;;;;;;;;;;21.40;99.90;;;;;;4881950;29;20072;-63
2022/09/14 12:30:53;;;;;;;;;;;21.40;99.90;;;;;;4898430;29;20034;-62
2022/09/14 12:33:34;;;;;;;;;;;22.20;99.90;;;;;;4807327;29;19921;-62
2022/09/14 12:36:04;;;;;;;;;;;22.00;99.90;;;;;;4822088;29;19921;-63
2022/09/14 12:38:29;;;;;;;;;;;22.10;99.90;;;;;;4822501;29;19943;-61
2022/09/14 12:40:59;;;;;;;;;;;22.60;99.90;;;;;;4821545;29;20370;-62
2022/09/14 12:43:33;;;;;;;;;;;21.60;99.90;;;;;;4822267;29;19920;-62
2022/09/14 12:46:00;;;;;;;;;;;21.70;99.90;;;;;;4822463;29;19964;-62
2022/09/14 12:48:44;;;;;;;;;;;21.50;99.90;;;;;;4822199;29;19928;-63
2022/09/14 12:51:22;;;;;;;;;;;22.00;99.90;;;;;;4821914;29;19921;-61
2022/09/14 12:53:56;;;;;;;;;;;21.80;99.90;;;;;;4806874;29;19932;-62
2022/09/14 12:56:41;;;;;;;;;;;21.60;99.90;;;;;;4822324;29;20321;-63
2022/09/14 12:59:10;;;;;;;;;;;21.70;99.90;;;;;;4822235;29;19976;-62
2022/09/14 13:01:45;;;;;;;;;;;21.70;99.90;;;;;;4822155;29;19920;-62
2022/09/14 13:04:15;;;;;;;;;;;22.00;99.90;;;;;;4806867;29;19929;-62
2022/09/14 13:06:45;;;;;;;;;;;22.30;99.90;;;;;;4822155;29;20012;-63
2022/09/14 13:09:19;;;;;;;;;;;22.30;99.90;;;;;;4868859;29;20391;-62
2022/09/14 13:11:45;;;;;;;;;;;22.50;99.90;;;;;;4898207;29;19997;-63
2022/09/14 13:14:15;;;;;;;;;;;22.00;99.90;;;;;;4897893;29;19971;-63
2022/09/14 13:16:43;;;;;;;;;;;22.10;99.90;;;;;;4897143;29;19920;-63
2022/09/14 13:19:08;;;;;;;;;;;;;;;;;;4880916;29;19954;-63
2022/09/14 13:21:34;;;;;;;;;;;21.90;99.90;;;;;;4897905;29;19924;-62
2022/09/14 13:23:59;;;;;;;;;;;22.00;99.90;;;;;;4897761;29;20280;-62
2022/09/14 13:26:26;;;;;;;;;;;22.20;99.90;;;;;;4898153;29;19974;-62
2022/09/14 13:28:53;;;;;;;;;;;22.00;99.90;;;;;;4897795;29;19919;-62
2022/09/14 13:31:26;;;;;;;;;;;21.80;99.90;;;;;;4881459;29;19920;-62
2022/09/14 13:33:53;;;;;;;;;;;21.60;99.90;;;;;;4897424;29;20406;-63
2022/09/14 13:36:20;;;;;;;;;;;21.40;99.90;;;;;;4897665;29;19919;-63
2022/09/14 13:38:46;;;;;;;;;;;21.20;99.90;;;;;;4897054;29;19919;-63
2022/09/14 13:41:16;;;;;;;;;;;21.00;99.90;;;;;;4881068;29;20368;-61
2022/09/14 13:43:42;;;;;;;;;;;21.30;99.90;;;;;;4897779;29;19919;-62
2022/09/14 13:46:09;;;;;;;;;;;;;;;;;;4897695;29;19923;-62
2022/09/14 13:51:30;;;;;;;;;;;20.80;99.90;;;;;;4841927;29;20023;-62
2022/09/14 13:53:56;;;;;;;;;;;20.90;99.90;;;;;;4863976;29;19930;-62
2022/09/14 13:56:25;;;;;;;;;;;20.40;99.90;;;;;;4863959;29;19920;-62
2022/09/14 13:59:05;;;;;;;;;;;20.70;99.90;;;;;;4863884;29;19928;-62
2022/09/14 14:01:32;;;;;;;;;;;20.80;99.90;;;;;;4847486;29;19928;-62
2022/09/14 14:04:01;;;;;;;;;;;20.90;99.90;;;;;;4858213;23;19926;-62
2022/09/14 14:12:01;;;;;;;;;;;;;;;;;;4850061;24;20015;-63
2022/09/14 14:14:27;;;;;;;;;;;20.60;99.90;;;;;;4884172;29;20436;-62
2022/09/14 14:17:09;;;;;;;;;;;20.50;99.90;;;;;;4900649;29;20005;-62
2022/09/14 14:19:35;;;;;;;;;;;20.80;99.90;;;;;;4900856;29;20441;-62
2022/09/14 14:22:13;;;;;;;;;;;20.90;99.90;;;;;;4900781;29;19923;-63
2022/09/14 14:24:39;;;;;;;;;;;21.10;99.90;;;;;;4900872;29;19975;-63
2022/09/14 14:27:05;;;;;;;;;;;20.90;99.90;;;;;;4884277;29;20291;-63
2022/09/14 14:29:31;;;;;;;;;;;21.10;99.90;;;;;;4900633;29;19927;-63
2022/09/14 14:31:57;;;;;;;;;;;21.50;99.90;;;;;;4900302;29;19919;-62
2022/09/14 14:34:23;;;;;;;;;;;;;;;;;;4900605;29;19979;-62
2022/09/14 14:36:49;;;;;;;;;;;21.70;99.90;;;;;;4883928;29;19923;-62
2022/09/14 14:39:16;;;;;;;;;;;21.70;99.90;;;;;;4900685;29;19920;-62
2022/09/14 14:41:41;;;;;;;;;;;21.60;99.90;;;;;;4883814;29;20034;-62
2022/09/14 14:44:09;;;;;;;;;;;21.60;99.90;;;;;;4884014;29;20022;-63
2022/09/14 14:46:34;;;;;;;;;;;21.70;99.90;;;;;;4883492;29;20423;-62
2022/09/14 14:49:00;;;;;;;;;;;21.60;99.90;;;;;;4883470;29;19919;-62
2022/09/14 14:51:25;;;;;;;;;;;21.60;99.90;;;;;;4900229;29;20033;-62
2022/09/14 14:53:51;;;;;;;;;;;21.60;99.90;;;;;;4900480;29;19923;-62
2022/09/14 14:56:16;;;;;;;;;;;21.80;99.90;;;;;;4900414;29;19923;-62
2022/09/14 14:58:43;;;;;;;;;;;21.80;99.90;;;;;;4883318;29;19920;-61
2022/09/14 15:01:08;;;;;;;;;;;21.50;99.90;;;;;;4899758;29;19923;-62
2022/09/14 15:03:34;;;;;;;;;;;21.40;99.90;;;;;;4898979;29;19923;-62
2022/09/14 15:06:09;;;;;;;;;;;21.60;99.90;;;;;;4883134;29;19926;-62